sensor_id;sensor_type;location;lat;lon;timestamp;P1;durP1;ratioP1;P2;durP2;ratioP2
48578;SDS011;34357;51.948;6.132;2023-07-31T00:01:24;4.15;;;2.83;;
48578;SDS011;34357;51.948;6.132;2023-07-31T00:03:50;6.35;;;3.10;;
48578;SDS011;34357;51.948;6.132;2023-07-31T00:06:15;7.88;;;5.45;;
48578;SDS011;34357;51.948;6.132;2023-07-31T00:08:41;7.10;;;6.05;;
48578;SDS011;34357;51.948;6.132;2023-07-31T00:11:07;9.35;;;7.65;;
48578;SDS011;34357;51.948;6.132;2023-07-31T00:13:32;9.85;;;8.55;;
48578;SDS011;34357;51.948;6.132;2023-07-31T00:15:59;11.10;;;9.27;;
48578;SDS011;34357;51.948;6.132;2023-07-31T00:18:25;11.77;;;8.88;;
48578;SDS011;34357;51.948;6.132;2023-07-31T00:20:51;11.10;;;9.38;;
48578;SDS011;34357;51.948;6.132;2023-07-31T00:23:16;10.80;;;9.50;;
48578;SDS011;34357;51.948;6.132;2023-07-31T00:25:42;14.02;;;11.18;;
48578;SDS011;34357;51.948;6.132;2023-07-31T00:28:08;13.88;;;11.45;;
48578;SDS011;34357;51.948;6.132;2023-07-31T00:30:33;13.07;;;11.63;;
48578;SDS011;34357;51.948;6.132;2023-07-31T00:33:00;13.15;;;11.73;;
48578;SDS011;34357;51.948;6.132;2023-07-31T00:35:25;14.00;;;11.05;;
48578;SDS011;34357;51.948;6.132;2023-07-31T00:37:51;10.10;;;9.02;;
48578;SDS011;34357;51.948;6.132;2023-07-31T00:40:17;11.32;;;8.80;;
48578;SDS011;34357;51.948;6.132;2023-07-31T00:42:42;10.65;;;8.45;;
48578;SDS011;34357;51.948;6.132;2023-07-31T00:45:08;9.43;;;7.82;;
48578;SDS011;34357;51.948;6.132;2023-07-31T00:47:34;7.95;;;7.15;;
48578;SDS011;34357;51.948;6.132;2023-07-31T00:50:00;7.45;;;6.65;;
48578;SDS011;34357;51.948;6.132;2023-07-31T00:52:26;9.77;;;6.50;;
48578;SDS011;34357;51.948;6.132;2023-07-31T00:54:51;9.52;;;6.32;;
48578;SDS011;34357;51.948;6.132;2023-07-31T00:57:17;11.57;;;6.50;;
48578;SDS011;34357;51.948;6.132;2023-07-31T00:59:43;12.55;;;7.05;;
48578;SDS011;34357;51.948;6.132;2023-07-31T01:02:09;13.23;;;7.07;;
48578;SDS011;34357;51.948;6.132;2023-07-31T01:04:35;18.45;;;7.43;;
48578;SDS011;34357;51.948;6.132;2023-07-31T01:07:14;22.33;;;9.43;;
48578;SDS011;34357;51.948;6.132;2023-07-31T01:10:02;32.55;;;11.38;;
48578;SDS011;34357;51.948;6.132;2023-07-31T01:12:30;36.60;;;13.52;;
48578;SDS011;34357;51.948;6.132;2023-07-31T01:15:04;36.90;;;14.88;;
48578;SDS011;34357;51.948;6.132;2023-07-31T01:17:30;52.53;;;16.95;;
48578;SDS011;34357;51.948;6.132;2023-07-31T01:19:55;46.72;;;17.67;;
48578;SDS011;34357;51.948;6.132;2023-07-31T01:28:38;44.78;;;15.38;;
48578;SDS011;34357;51.948;6.132;2023-07-31T01:31:22;48.42;;;17.38;;
48578;SDS011;34357;51.948;6.132;2023-07-31T01:33:53;51.42;;;17.05;;
48578;SDS011;34357;51.948;6.132;2023-07-31T01:36:21;51.30;;;17.58;;
48578;SDS011;34357;51.948;6.132;2023-07-31T01:38:47;51.85;;;16.00;;
48578;SDS011;34357;51.948;6.132;2023-07-31T01:41:13;51.83;;;17.23;;
48578;SDS011;34357;51.948;6.132;2023-07-31T01:43:41;48.92;;;17.00;;
48578;SDS011;34357;51.948;6.132;2023-07-31T01:46:07;49.97;;;17.42;;
48578;SDS011;34357;51.948;6.132;2023-07-31T01:48:33;48.45;;;16.15;;
48578;SDS011;34357;51.948;6.132;2023-07-31T01:51:01;42.88;;;16.00;;
48578;SDS011;34357;51.948;6.132;2023-07-31T01:53:27;45.42;;;15.50;;
48578;SDS011;34357;51.948;6.132;2023-07-31T01:55:53;43.00;;;16.10;;
48578;SDS011;34357;51.948;6.132;2023-07-31T01:58:18;52.92;;;16.58;;
48578;SDS011;34357;51.948;6.132;2023-07-31T02:00:44;45.47;;;15.13;;
48578;SDS011;34357;51.948;6.132;2023-07-31T02:03:11;39.13;;;15.43;;
48578;SDS011;34357;51.948;6.132;2023-07-31T02:05:43;40.60;;;15.48;;
48578;SDS011;34357;51.948;6.132;2023-07-31T02:08:13;48.15;;;16.08;;
48578;SDS011;34357;51.948;6.132;2023-07-31T02:10:39;45.85;;;15.40;;
48578;SDS011;34357;51.948;6.132;2023-07-31T02:13:04;40.97;;;14.20;;
48578;SDS011;34357;51.948;6.132;2023-07-31T02:15:31;39.42;;;14.98;;
48578;SDS011;34357;51.948;6.132;2023-07-31T02:17:57;43.65;;;15.30;;
48578;SDS011;34357;51.948;6.132;2023-07-31T02:20:22;43.05;;;14.52;;
48578;SDS011;34357;51.948;6.132;2023-07-31T02:22:48;34.15;;;12.20;;
48578;SDS011;34357;51.948;6.132;2023-07-31T02:25:14;37.15;;;12.80;;
48578;SDS011;34357;51.948;6.132;2023-07-31T02:27:40;34.25;;;13.25;;
48578;SDS011;34357;51.948;6.132;2023-07-31T02:30:05;37.65;;;14.32;;
48578;SDS011;34357;51.948;6.132;2023-07-31T02:32:32;32.00;;;12.27;;
48578;SDS011;34357;51.948;6.132;2023-07-31T02:34:57;39.15;;;14.65;;
48578;SDS011;34357;51.948;6.132;2023-07-31T02:37:24;40.78;;;12.70;;
48578;SDS011;34357;51.948;6.132;2023-07-31T02:39:51;32.92;;;13.27;;
48578;SDS011;34357;51.948;6.132;2023-07-31T02:42:17;33.42;;;12.05;;
48578;SDS011;34357;51.948;6.132;2023-07-31T02:44:42;34.05;;;12.10;;
48578;SDS011;34357;51.948;6.132;2023-07-31T02:47:08;39.35;;;13.80;;
48578;SDS011;34357;51.948;6.132;2023-07-31T02:49:34;36.20;;;12.27;;
48578;SDS011;34357;51.948;6.132;2023-07-31T02:52:00;36.30;;;12.85;;
48578;SDS011;34357;51.948;6.132;2023-07-31T02:54:25;33.70;;;12.80;;
48578;SDS011;34357;51.948;6.132;2023-07-31T02:56:51;38.40;;;13.15;;
48578;SDS011;34357;51.948;6.132;2023-07-31T02:59:17;29.48;;;12.02;;
48578;SDS011;34357;51.948;6.132;2023-07-31T03:01:43;38.22;;;13.02;;
48578;SDS011;34357;51.948;6.132;2023-07-31T03:04:09;32.00;;;12.57;;
48578;SDS011;34357;51.948;6.132;2023-07-31T03:06:35;34.40;;;12.18;;
48578;SDS011;34357;51.948;6.132;2023-07-31T03:09:00;32.60;;;11.93;;
48578;SDS011;34357;51.948;6.132;2023-07-31T03:11:27;26.27;;;11.43;;
48578;SDS011;34357;51.948;6.132;2023-07-31T03:13:52;32.42;;;10.80;;
48578;SDS011;34357;51.948;6.132;2023-07-31T03:16:19;33.92;;;11.35;;
48578;SDS011;34357;51.948;6.132;2023-07-31T03:18:44;28.63;;;9.88;;
48578;SDS011;34357;51.948;6.132;2023-07-31T03:21:10;30.75;;;10.35;;
48578;SDS011;34357;51.948;6.132;2023-07-31T03:23:36;37.67;;;10.57;;
48578;SDS011;34357;51.948;6.132;2023-07-31T03:26:05;28.92;;;10.82;;
48578;SDS011;34357;51.948;6.132;2023-07-31T03:28:32;35.75;;;11.43;;
48578;SDS011;34357;51.948;6.132;2023-07-31T03:30:57;35.50;;;10.05;;
48578;SDS011;34357;51.948;6.132;2023-07-31T03:33:23;32.05;;;10.65;;
48578;SDS011;34357;51.948;6.132;2023-07-31T03:35:50;29.60;;;10.75;;
48578;SDS011;34357;51.948;6.132;2023-07-31T03:38:15;31.25;;;10.38;;
48578;SDS011;34357;51.948;6.132;2023-07-31T03:40:41;36.72;;;10.30;;
48578;SDS011;34357;51.948;6.132;2023-07-31T03:43:07;35.28;;;10.43;;
48578;SDS011;34357;51.948;6.132;2023-07-31T03:45:33;24.55;;;9.77;;
48578;SDS011;34357;51.948;6.132;2023-07-31T03:47:59;26.15;;;9.68;;
48578;SDS011;34357;51.948;6.132;2023-07-31T03:50:25;34.50;;;10.50;;
48578;SDS011;34357;51.948;6.132;2023-07-31T03:52:50;30.98;;;9.25;;
48578;SDS011;34357;51.948;6.132;2023-07-31T03:55:17;35.72;;;10.55;;
48578;SDS011;34357;51.948;6.132;2023-07-31T03:57:43;30.55;;;9.38;;
48578;SDS011;34357;51.948;6.132;2023-07-31T04:00:09;24.35;;;8.93;;
48578;SDS011;34357;51.948;6.132;2023-07-31T04:02:38;30.58;;;9.48;;
48578;SDS011;34357;51.948;6.132;2023-07-31T04:05:03;34.70;;;9.13;;
48578;SDS011;34357;51.948;6.132;2023-07-31T04:07:29;29.60;;;9.60;;
48578;SDS011;34357;51.948;6.132;2023-07-31T04:09:55;25.42;;;9.07;;
48578;SDS011;34357;51.948;6.132;2023-07-31T04:12:22;28.75;;;9.30;;
48578;SDS011;34357;51.948;6.132;2023-07-31T04:14:48;32.08;;;10.10;;
48578;SDS011;34357;51.948;6.132;2023-07-31T04:17:15;28.55;;;9.85;;
48578;SDS011;34357;51.948;6.132;2023-07-31T04:19:42;28.40;;;8.70;;
48578;SDS011;34357;51.948;6.132;2023-07-31T04:22:08;32.95;;;10.00;;
48578;SDS011;34357;51.948;6.132;2023-07-31T04:24:33;30.17;;;9.13;;
48578;SDS011;34357;51.948;6.132;2023-07-31T04:26:59;24.10;;;8.95;;
48578;SDS011;34357;51.948;6.132;2023-07-31T04:29:24;33.72;;;9.98;;
48578;SDS011;34357;51.948;6.132;2023-07-31T04:31:50;22.85;;;8.20;;
48578;SDS011;34357;51.948;6.132;2023-07-31T04:34:16;36.50;;;10.43;;
48578;SDS011;34357;51.948;6.132;2023-07-31T04:36:42;26.95;;;8.88;;
48578;SDS011;34357;51.948;6.132;2023-07-31T04:39:07;29.88;;;9.23;;
48578;SDS011;34357;51.948;6.132;2023-07-31T04:41:33;24.35;;;8.85;;
48578;SDS011;34357;51.948;6.132;2023-07-31T04:43:59;25.05;;;9.00;;
48578;SDS011;34357;51.948;6.132;2023-07-31T04:46:24;29.75;;;8.63;;
48578;SDS011;34357;51.948;6.132;2023-07-31T04:48:50;27.40;;;8.63;;
48578;SDS011;34357;51.948;6.132;2023-07-31T04:51:16;27.23;;;9.45;;
48578;SDS011;34357;51.948;6.132;2023-07-31T04:53:41;29.77;;;8.98;;
48578;SDS011;34357;51.948;6.132;2023-07-31T04:56:07;31.35;;;9.75;;
48578;SDS011;34357;51.948;6.132;2023-07-31T04:58:33;24.65;;;9.18;;
48578;SDS011;34357;51.948;6.132;2023-07-31T05:00:59;28.98;;;8.82;;
48578;SDS011;34357;51.948;6.132;2023-07-31T05:03:24;29.27;;;9.02;;
48578;SDS011;34357;51.948;6.132;2023-07-31T05:05:51;25.02;;;8.65;;
48578;SDS011;34357;51.948;6.132;2023-07-31T05:08:16;27.27;;;9.13;;
48578;SDS011;34357;51.948;6.132;2023-07-31T05:10:45;29.25;;;9.45;;
48578;SDS011;34357;51.948;6.132;2023-07-31T05:13:11;26.30;;;9.15;;
48578;SDS011;34357;51.948;6.132;2023-07-31T05:15:36;24.83;;;7.88;;
48578;SDS011;34357;51.948;6.132;2023-07-31T05:18:02;26.80;;;8.77;;
48578;SDS011;34357;51.948;6.132;2023-07-31T05:20:28;26.52;;;9.05;;
48578;SDS011;34357;51.948;6.132;2023-07-31T05:22:54;28.85;;;7.93;;
48578;SDS011;34357;51.948;6.132;2023-07-31T05:25:19;25.30;;;9.05;;
48578;SDS011;34357;51.948;6.132;2023-07-31T05:27:45;25.33;;;8.18;;
48578;SDS011;34357;51.948;6.132;2023-07-31T05:30:11;24.75;;;8.02;;
48578;SDS011;34357;51.948;6.132;2023-07-31T05:32:36;25.33;;;7.65;;
48578;SDS011;34357;51.948;6.132;2023-07-31T05:35:02;17.75;;;7.28;;
48578;SDS011;34357;51.948;6.132;2023-07-31T05:37:28;21.83;;;7.88;;
48578;SDS011;34357;51.948;6.132;2023-07-31T05:39:54;21.58;;;7.50;;
48578;SDS011;34357;51.948;6.132;2023-07-31T05:42:20;22.65;;;7.35;;
48578;SDS011;34357;51.948;6.132;2023-07-31T05:44:45;30.10;;;8.20;;
48578;SDS011;34357;51.948;6.132;2023-07-31T05:47:12;27.05;;;8.63;;
48578;SDS011;34357;51.948;6.132;2023-07-31T05:49:37;17.52;;;7.57;;
48578;SDS011;34357;51.948;6.132;2023-07-31T05:52:03;21.30;;;7.60;;
48578;SDS011;34357;51.948;6.132;2023-07-31T05:54:29;21.38;;;7.95;;
48578;SDS011;34357;51.948;6.132;2023-07-31T05:56:55;23.92;;;8.77;;
48578;SDS011;34357;51.948;6.132;2023-07-31T05:59:21;26.92;;;8.32;;
48578;SDS011;34357;51.948;6.132;2023-07-31T06:01:46;21.80;;;7.95;;
48578;SDS011;34357;51.948;6.132;2023-07-31T06:04:12;25.27;;;8.50;;
48578;SDS011;34357;51.948;6.132;2023-07-31T06:06:38;22.88;;;8.88;;
48578;SDS011;34357;51.948;6.132;2023-07-31T06:09:04;20.95;;;8.05;;
48578;SDS011;34357;51.948;6.132;2023-07-31T06:11:29;21.00;;;8.30;;
48578;SDS011;34357;51.948;6.132;2023-07-31T06:13:55;26.60;;;8.80;;
48578;SDS011;34357;51.948;6.132;2023-07-31T06:16:21;25.85;;;9.32;;
48578;SDS011;34357;51.948;6.132;2023-07-31T06:18:46;23.38;;;9.55;;
48578;SDS011;34357;51.948;6.132;2023-07-31T06:21:12;25.35;;;9.55;;
48578;SDS011;34357;51.948;6.132;2023-07-31T06:23:38;34.30;;;10.82;;
48578;SDS011;34357;51.948;6.132;2023-07-31T06:26:04;27.45;;;9.35;;
48578;SDS011;34357;51.948;6.132;2023-07-31T06:28:30;25.80;;;10.75;;
48578;SDS011;34357;51.948;6.132;2023-07-31T06:30:57;29.63;;;10.50;;
48578;SDS011;34357;51.948;6.132;2023-07-31T06:33:23;29.08;;;11.57;;
48578;SDS011;34357;51.948;6.132;2023-07-31T06:35:49;21.40;;;10.30;;
48578;SDS011;34357;51.948;6.132;2023-07-31T06:38:14;25.35;;;11.60;;
48578;SDS011;34357;51.948;6.132;2023-07-31T06:40:40;26.17;;;10.43;;
48578;SDS011;34357;51.948;6.132;2023-07-31T06:43:06;21.13;;;9.68;;
48578;SDS011;34357;51.948;6.132;2023-07-31T06:45:35;23.92;;;9.98;;
48578;SDS011;34357;51.948;6.132;2023-07-31T06:48:01;19.60;;;8.20;;
48578;SDS011;34357;51.948;6.132;2023-07-31T06:50:29;20.25;;;9.02;;
48578;SDS011;34357;51.948;6.132;2023-07-31T06:52:55;20.70;;;8.57;;
48578;SDS011;34357;51.948;6.132;2023-07-31T06:55:22;23.60;;;9.82;;
48578;SDS011;34357;51.948;6.132;2023-07-31T06:57:49;19.23;;;8.57;;
48578;SDS011;34357;51.948;6.132;2023-07-31T07:00:16;15.38;;;7.35;;
48578;SDS011;34357;51.948;6.132;2023-07-31T07:02:43;15.55;;;7.43;;
48578;SDS011;34357;51.948;6.132;2023-07-31T07:05:09;13.27;;;6.90;;
48578;SDS011;34357;51.948;6.132;2023-07-31T07:07:34;14.00;;;6.35;;
48578;SDS011;34357;51.948;6.132;2023-07-31T07:10:01;14.38;;;6.28;;
48578;SDS011;34357;51.948;6.132;2023-07-31T07:12:29;11.35;;;5.40;;
48578;SDS011;34357;51.948;6.132;2023-07-31T07:14:55;10.57;;;5.30;;
48578;SDS011;34357;51.948;6.132;2023-07-31T07:17:21;11.43;;;4.10;;
48578;SDS011;34357;51.948;6.132;2023-07-31T07:19:47;8.52;;;4.53;;
48578;SDS011;34357;51.948;6.132;2023-07-31T07:22:13;6.93;;;3.90;;
48578;SDS011;34357;51.948;6.132;2023-07-31T07:24:39;8.13;;;4.25;;
48578;SDS011;34357;51.948;6.132;2023-07-31T07:27:05;9.25;;;4.18;;
48578;SDS011;34357;51.948;6.132;2023-07-31T07:29:31;5.80;;;3.85;;
48578;SDS011;34357;51.948;6.132;2023-07-31T07:31:57;6.03;;;3.47;;
48578;SDS011;34357;51.948;6.132;2023-07-31T07:34:24;8.65;;;3.63;;
48578;SDS011;34357;51.948;6.132;2023-07-31T07:36:51;6.32;;;3.80;;
48578;SDS011;34357;51.948;6.132;2023-07-31T07:39:16;7.40;;;3.80;;
48578;SDS011;34357;51.948;6.132;2023-07-31T07:41:42;4.68;;;3.33;;
48578;SDS011;34357;51.948;6.132;2023-07-31T07:44:08;4.65;;;3.28;;
48578;SDS011;34357;51.948;6.132;2023-07-31T07:46:33;4.72;;;3.40;;
48578;SDS011;34357;51.948;6.132;2023-07-31T07:48:59;5.50;;;2.92;;
48578;SDS011;34357;51.948;6.132;2023-07-31T07:51:25;4.95;;;3.00;;
48578;SDS011;34357;51.948;6.132;2023-07-31T07:53:51;5.15;;;3.58;;
48578;SDS011;34357;51.948;6.132;2023-07-31T07:56:16;4.35;;;3.45;;
48578;SDS011;34357;51.948;6.132;2023-07-31T07:58:42;7.63;;;3.70;;
48578;SDS011;34357;51.948;6.132;2023-07-31T08:01:08;6.93;;;3.45;;
48578;SDS011;34357;51.948;6.132;2023-07-31T08:03:33;4.80;;;3.80;;
48578;SDS011;34357;51.948;6.132;2023-07-31T08:06:00;4.05;;;3.25;;
48578;SDS011;34357;51.948;6.132;2023-07-31T08:08:28;4.40;;;3.45;;
48578;SDS011;34357;51.948;6.132;2023-07-31T08:10:54;4.25;;;3.20;;
48578;SDS011;34357;51.948;6.132;2023-07-31T08:13:19;4.50;;;3.17;;
48578;SDS011;34357;51.948;6.132;2023-07-31T08:15:45;4.43;;;3.25;;
48578;SDS011;34357;51.948;6.132;2023-07-31T08:18:11;4.85;;;3.17;;
48578;SDS011;34357;51.948;6.132;2023-07-31T08:20:37;5.32;;;3.17;;
48578;SDS011;34357;51.948;6.132;2023-07-31T08:23:03;4.85;;;3.13;;
48578;SDS011;34357;51.948;6.132;2023-07-31T08:25:29;6.47;;;2.90;;
48578;SDS011;34357;51.948;6.132;2023-07-31T08:27:55;4.85;;;3.03;;
48578;SDS011;34357;51.948;6.132;2023-07-31T08:30:21;3.30;;;2.90;;
48578;SDS011;34357;51.948;6.132;2023-07-31T08:32:47;3.75;;;3.30;;
48578;SDS011;34357;51.948;6.132;2023-07-31T08:35:14;5.15;;;3.42;;
48578;SDS011;34357;51.948;6.132;2023-07-31T08:37:40;4.50;;;3.58;;
48578;SDS011;34357;51.948;6.132;2023-07-31T08:40:06;5.13;;;3.67;;
48578;SDS011;34357;51.948;6.132;2023-07-31T08:42:32;5.45;;;3.75;;
48578;SDS011;34357;51.948;6.132;2023-07-31T08:44:58;4.28;;;3.17;;
48578;SDS011;34357;51.948;6.132;2023-07-31T08:47:26;4.25;;;3.13;;
48578;SDS011;34357;51.948;6.132;2023-07-31T08:49:52;5.70;;;3.40;;
48578;SDS011;34357;51.948;6.132;2023-07-31T08:52:19;4.13;;;3.10;;
48578;SDS011;34357;51.948;6.132;2023-07-31T08:54:45;8.13;;;4.00;;
48578;SDS011;34357;51.948;6.132;2023-07-31T08:57:11;4.20;;;3.80;;
48578;SDS011;34357;51.948;6.132;2023-07-31T08:59:37;4.32;;;3.38;;
48578;SDS011;34357;51.948;6.132;2023-07-31T09:02:05;4.28;;;3.45;;
48578;SDS011;34357;51.948;6.132;2023-07-31T09:04:33;7.82;;;3.83;;
48578;SDS011;34357;51.948;6.132;2023-07-31T09:07:02;3.85;;;3.30;;
48578;SDS011;34357;51.948;6.132;2023-07-31T09:09:32;3.90;;;3.30;;
48578;SDS011;34357;51.948;6.132;2023-07-31T09:11:58;5.72;;;3.75;;
48578;SDS011;34357;51.948;6.132;2023-07-31T09:14:24;3.83;;;3.42;;
48578;SDS011;34357;51.948;6.132;2023-07-31T09:16:52;4.28;;;3.88;;
48578;SDS011;34357;51.948;6.132;2023-07-31T09:19:39;6.03;;;3.88;;
48578;SDS011;34357;51.948;6.132;2023-07-31T09:22:05;5.05;;;3.92;;
48578;SDS011;34357;51.948;6.132;2023-07-31T09:24:32;6.22;;;4.20;;
48578;SDS011;34357;51.948;6.132;2023-07-31T09:26:59;6.10;;;4.18;;
48578;SDS011;34357;51.948;6.132;2023-07-31T09:29:26;5.18;;;3.80;;
48578;SDS011;34357;51.948;6.132;2023-07-31T09:31:54;5.72;;;3.65;;
48578;SDS011;34357;51.948;6.132;2023-07-31T09:34:20;4.53;;;3.95;;
48578;SDS011;34357;51.948;6.132;2023-07-31T09:37:03;4.43;;;4.03;;
48578;SDS011;34357;51.948;6.132;2023-07-31T09:39:30;7.13;;;4.45;;
48578;SDS011;34357;51.948;6.132;2023-07-31T09:41:56;5.80;;;4.93;;
48578;SDS011;34357;51.948;6.132;2023-07-31T09:44:36;5.57;;;4.40;;
48578;SDS011;34357;51.948;6.132;2023-07-31T09:47:03;6.43;;;4.47;;
48578;SDS011;34357;51.948;6.132;2023-07-31T09:49:29;5.57;;;4.75;;
48578;SDS011;34357;51.948;6.132;2023-07-31T09:51:55;6.55;;;5.05;;
48578;SDS011;34357;51.948;6.132;2023-07-31T09:54:21;7.13;;;5.05;;
48578;SDS011;34357;51.948;6.132;2023-07-31T09:56:47;5.93;;;4.90;;
48578;SDS011;34357;51.948;6.132;2023-07-31T09:59:15;7.20;;;5.57;;
48578;SDS011;34357;51.948;6.132;2023-07-31T10:01:43;10.07;;;5.88;;
48578;SDS011;34357;51.948;6.132;2023-07-31T10:04:09;7.20;;;5.72;;
48578;SDS011;34357;51.948;6.132;2023-07-31T10:06:37;8.15;;;6.05;;
48578;SDS011;34357;51.948;6.132;2023-07-31T10:09:07;8.27;;;6.80;;
48578;SDS011;34357;51.948;6.132;2023-07-31T10:11:37;13.07;;;7.55;;
48578;SDS011;34357;51.948;6.132;2023-07-31T10:14:05;9.52;;;7.55;;
48578;SDS011;34357;51.948;6.132;2023-07-31T10:16:32;12.07;;;7.30;;
48578;SDS011;34357;51.948;6.132;2023-07-31T10:19:00;9.85;;;7.25;;
48578;SDS011;34357;51.948;6.132;2023-07-31T10:21:26;13.07;;;7.20;;
48578;SDS011;34357;51.948;6.132;2023-07-31T10:23:53;14.52;;;8.32;;
48578;SDS011;34357;51.948;6.132;2023-07-31T10:26:20;12.77;;;7.75;;
48578;SDS011;34357;51.948;6.132;2023-07-31T10:28:48;10.65;;;7.50;;
48578;SDS011;34357;51.948;6.132;2023-07-31T10:31:15;10.43;;;7.40;;
48578;SDS011;34357;51.948;6.132;2023-07-31T10:33:42;12.10;;;6.25;;
48578;SDS011;34357;51.948;6.132;2023-07-31T10:38:42;10.68;;;7.15;;
48578;SDS011;34357;51.948;6.132;2023-07-31T10:41:08;10.07;;;7.45;;
48578;SDS011;34357;51.948;6.132;2023-07-31T10:43:35;14.05;;;7.82;;
48578;SDS011;34357;51.948;6.132;2023-07-31T10:46:06;13.07;;;8.20;;
48578;SDS011;34357;51.948;6.132;2023-07-31T10:50:59;13.27;;;9.15;;
48578;SDS011;34357;51.948;6.132;2023-07-31T10:53:32;9.70;;;7.30;;
48578;SDS011;34357;51.948;6.132;2023-07-31T10:56:02;13.40;;;8.15;;
48578;SDS011;34357;51.948;6.132;2023-07-31T10:58:30;15.48;;;7.15;;
48578;SDS011;34357;51.948;6.132;2023-07-31T11:01:03;12.00;;;8.30;;
48578;SDS011;34357;51.948;6.132;2023-07-31T11:03:43;14.52;;;8.48;;
48578;SDS011;34357;51.948;6.132;2023-07-31T11:06:12;14.88;;;8.07;;
48578;SDS011;34357;51.948;6.132;2023-07-31T11:08:42;12.15;;;7.95;;
48578;SDS011;34357;51.948;6.132;2023-07-31T11:11:12;18.95;;;8.38;;
48578;SDS011;34357;51.948;6.132;2023-07-31T11:16:10;11.57;;;7.15;;
48578;SDS011;34357;51.948;6.132;2023-07-31T11:18:38;11.02;;;7.18;;
48578;SDS011;34357;51.948;6.132;2023-07-31T11:21:06;11.57;;;7.20;;
48578;SDS011;34357;51.948;6.132;2023-07-31T11:23:33;9.90;;;7.22;;
48578;SDS011;34357;51.948;6.132;2023-07-31T11:26:01;12.05;;;6.88;;
48578;SDS011;34357;51.948;6.132;2023-07-31T11:28:31;9.23;;;6.88;;
48578;SDS011;34357;51.948;6.132;2023-07-31T11:30:58;8.77;;;6.82;;
48578;SDS011;34357;51.948;6.132;2023-07-31T11:33:25;10.80;;;6.80;;
48578;SDS011;34357;51.948;6.132;2023-07-31T11:35:51;14.93;;;7.25;;
48578;SDS011;34357;51.948;6.132;2023-07-31T11:38:27;12.20;;;7.65;;
48578;SDS011;34357;51.948;6.132;2023-07-31T11:40:55;11.32;;;7.65;;
48578;SDS011;34357;51.948;6.132;2023-07-31T11:43:25;12.30;;;7.85;;
48578;SDS011;34357;51.948;6.132;2023-07-31T11:45:52;14.70;;;8.43;;
48578;SDS011;34357;51.948;6.132;2023-07-31T11:48:26;18.65;;;8.75;;
48578;SDS011;34357;51.948;6.132;2023-07-31T11:50:58;11.55;;;8.13;;
48578;SDS011;34357;51.948;6.132;2023-07-31T11:56:06;10.32;;;7.55;;
48578;SDS011;34357;51.948;6.132;2023-07-31T11:58:34;12.20;;;7.32;;
48578;SDS011;34357;51.948;6.132;2023-07-31T12:01:00;8.95;;;6.25;;
48578;SDS011;34357;51.948;6.132;2023-07-31T12:03:27;14.40;;;7.40;;
48578;SDS011;34357;51.948;6.132;2023-07-31T12:05:53;10.70;;;6.82;;
48578;SDS011;34357;51.948;6.132;2023-07-31T12:08:25;15.15;;;7.55;;
48578;SDS011;34357;51.948;6.132;2023-07-31T12:10:51;12.90;;;7.28;;
48578;SDS011;34357;51.948;6.132;2023-07-31T12:13:21;11.30;;;6.65;;
48578;SDS011;34357;51.948;6.132;2023-07-31T12:15:47;11.30;;;6.70;;
48578;SDS011;34357;51.948;6.132;2023-07-31T12:18:13;9.75;;;5.60;;
48578;SDS011;34357;51.948;6.132;2023-07-31T12:20:41;13.15;;;6.93;;
48578;SDS011;34357;51.948;6.132;2023-07-31T12:23:12;9.55;;;6.72;;
48578;SDS011;34357;51.948;6.132;2023-07-31T12:28:38;8.82;;;6.30;;
48578;SDS011;34357;51.948;6.132;2023-07-31T12:31:08;11.48;;;7.10;;
48578;SDS011;34357;51.948;6.132;2023-07-31T12:33:39;9.85;;;7.22;;
48578;SDS011;34357;51.948;6.132;2023-07-31T12:36:20;10.90;;;6.80;;
48578;SDS011;34357;51.948;6.132;2023-07-31T12:38:46;10.88;;;5.78;;
48578;SDS011;34357;51.948;6.132;2023-07-31T12:41:12;10.40;;;5.97;;
48578;SDS011;34357;51.948;6.132;2023-07-31T12:43:39;12.50;;;6.55;;
48578;SDS011;34357;51.948;6.132;2023-07-31T12:46:06;8.50;;;6.65;;
48578;SDS011;34357;51.948;6.132;2023-07-31T12:48:36;10.05;;;6.55;;
48578;SDS011;34357;51.948;6.132;2023-07-31T12:51:02;9.10;;;7.10;;
48578;SDS011;34357;51.948;6.132;2023-07-31T12:53:29;14.88;;;7.68;;
48578;SDS011;34357;51.948;6.132;2023-07-31T12:55:55;14.10;;;9.25;;
48578;SDS011;34357;51.948;6.132;2023-07-31T12:58:21;11.70;;;8.35;;
48578;SDS011;34357;51.948;6.132;2023-07-31T13:00:47;15.63;;;8.50;;
48578;SDS011;34357;51.948;6.132;2023-07-31T13:03:13;10.98;;;7.30;;
48578;SDS011;34357;51.948;6.132;2023-07-31T13:05:39;12.60;;;7.95;;
48578;SDS011;34357;51.948;6.132;2023-07-31T13:08:05;9.90;;;6.90;;
48578;SDS011;34357;51.948;6.132;2023-07-31T13:10:30;13.45;;;7.43;;
48578;SDS011;34357;51.948;6.132;2023-07-31T13:12:56;6.93;;;6.03;;
48578;SDS011;34357;51.948;6.132;2023-07-31T13:15:22;11.32;;;6.63;;
48578;SDS011;34357;51.948;6.132;2023-07-31T13:17:48;10.15;;;6.47;;
48578;SDS011;34357;51.948;6.132;2023-07-31T13:20:14;8.50;;;6.07;;
48578;SDS011;34357;51.948;6.132;2023-07-31T13:22:40;12.13;;;5.82;;
48578;SDS011;34357;51.948;6.132;2023-07-31T13:25:06;9.48;;;5.90;;
48578;SDS011;34357;51.948;6.132;2023-07-31T13:27:32;7.25;;;4.85;;
48578;SDS011;34357;51.948;6.132;2023-07-31T13:29:58;8.55;;;5.18;;
48578;SDS011;34357;51.948;6.132;2023-07-31T13:32:23;6.95;;;5.25;;
48578;SDS011;34357;51.948;6.132;2023-07-31T13:34:49;7.82;;;4.90;;
48578;SDS011;34357;51.948;6.132;2023-07-31T13:37:15;7.90;;;5.75;;
48578;SDS011;34357;51.948;6.132;2023-07-31T13:39:41;8.68;;;6.03;;
48578;SDS011;34357;51.948;6.132;2023-07-31T13:42:07;10.57;;;5.85;;
48578;SDS011;34357;51.948;6.132;2023-07-31T13:44:37;9.75;;;6.55;;
48578;SDS011;34357;51.948;6.132;2023-07-31T13:47:03;7.72;;;5.82;;
48578;SDS011;34357;51.948;6.132;2023-07-31T13:49:29;8.43;;;5.40;;
48578;SDS011;34357;51.948;6.132;2023-07-31T13:51:55;7.97;;;5.85;;
48578;SDS011;34357;51.948;6.132;2023-07-31T13:54:22;10.63;;;6.50;;
48578;SDS011;34357;51.948;6.132;2023-07-31T13:56:48;9.73;;;6.30;;
48578;SDS011;34357;51.948;6.132;2023-07-31T13:59:14;13.38;;;6.40;;
48578;SDS011;34357;51.948;6.132;2023-07-31T14:01:43;8.43;;;5.63;;
48578;SDS011;34357;51.948;6.132;2023-07-31T14:04:09;12.30;;;6.32;;
48578;SDS011;34357;51.948;6.132;2023-07-31T14:06:35;10.25;;;6.20;;
48578;SDS011;34357;51.948;6.132;2023-07-31T14:09:02;11.57;;;6.05;;
48578;SDS011;34357;51.948;6.132;2023-07-31T14:11:28;9.27;;;6.22;;
48578;SDS011;34357;51.948;6.132;2023-07-31T14:13:56;10.38;;;6.72;;
48578;SDS011;34357;51.948;6.132;2023-07-31T14:16:22;12.55;;;6.72;;
48578;SDS011;34357;51.948;6.132;2023-07-31T14:18:48;10.45;;;6.95;;
48578;SDS011;34357;51.948;6.132;2023-07-31T14:21:14;8.43;;;6.18;;
48578;SDS011;34357;51.948;6.132;2023-07-31T14:23:40;11.73;;;6.43;;
48578;SDS011;34357;51.948;6.132;2023-07-31T14:26:06;10.85;;;6.85;;
48578;SDS011;34357;51.948;6.132;2023-07-31T14:28:32;12.18;;;7.18;;
48578;SDS011;34357;51.948;6.132;2023-07-31T14:30:58;11.40;;;7.40;;
48578;SDS011;34357;51.948;6.132;2023-07-31T14:33:24;13.10;;;6.80;;
48578;SDS011;34357;51.948;6.132;2023-07-31T14:35:50;13.00;;;7.38;;
48578;SDS011;34357;51.948;6.132;2023-07-31T14:38:15;10.48;;;7.32;;
48578;SDS011;34357;51.948;6.132;2023-07-31T14:40:41;10.98;;;6.97;;
48578;SDS011;34357;51.948;6.132;2023-07-31T14:43:07;10.43;;;6.85;;
48578;SDS011;34357;51.948;6.132;2023-07-31T14:45:33;12.68;;;7.40;;
48578;SDS011;34357;51.948;6.132;2023-07-31T14:47:59;12.32;;;8.20;;
48578;SDS011;34357;51.948;6.132;2023-07-31T14:50:25;14.55;;;8.30;;
48578;SDS011;34357;51.948;6.132;2023-07-31T14:52:51;15.68;;;8.43;;